createdAt,value
2022-11-28T00:10:01.525Z,-7.06
2022-11-28T00:20:05.213Z,-7.08
2022-11-28T00:30:11.083Z,-7.09
2022-11-28T00:40:14.031Z,-7.11
2022-11-28T00:50:18.764Z,-7.12
2022-11-28T01:00:22.292Z,-7.16
2022-11-28T01:10:27.490Z,-7.20
2022-11-28T01:20:30.385Z,-7.22
2022-11-28T01:30:35.422Z,-7.24
2022-11-28T01:40:45.334Z,-7.33
2022-11-28T01:50:55.734Z,-7.37
2022-11-28T02:00:58.934Z,-7.38
2022-11-28T02:11:31.375Z,-7.38
2022-11-28T02:21:54.390Z,-7.40
2022-11-28T02:32:06.509Z,-7.40
2022-11-28T02:42:15.620Z,-7.40
2022-11-28T02:52:24.519Z,-7.45
2022-11-28T03:02:33.804Z,-7.46
2022-11-28T03:12:49.986Z,-7.51
2022-11-28T03:23:12.558Z,-7.52
2022-11-28T03:33:19.279Z,-7.52
2022-11-28T03:43:28.250Z,-7.52
2022-11-28T03:53:44.882Z,-7.52
2022-11-28T04:03:55.452Z,-7.51
2022-11-28T04:14:08.973Z,-7.53
2022-11-28T04:24:20.751Z,-7.55
2022-11-28T04:34:28.101Z,-7.59
2022-11-28T04:44:37.712Z,-7.64
2022-11-28T04:54:51.974Z,-7.68
2022-11-28T05:04:56.044Z,-7.70
2022-11-28T05:15:00.557Z,-7.69
2022-11-28T05:25:11.064Z,-7.68
2022-11-28T05:35:17.173Z,-7.66
2022-11-28T05:45:20.430Z,-7.66
2022-11-28T05:55:24.882Z,-7.68
2022-11-28T06:05:42.846Z,-7.67
2022-11-28T06:15:47.937Z,-7.65
2022-11-28T06:25:50.935Z,-7.65
2022-11-28T06:36:07.068Z,-7.61
2022-11-28T06:46:15.897Z,-7.61
2022-11-28T06:56:21.698Z,-7.57
2022-11-28T07:06:26.991Z,-7.53
2022-11-28T07:16:33.131Z,-7.48
2022-11-28T07:26:38.198Z,-7.46
2022-11-28T07:36:42.943Z,-7.42
2022-11-28T07:46:49.397Z,-7.37
2022-11-28T07:57:12.499Z,-7.34
2022-11-28T08:07:16.542Z,-7.32
2022-11-28T08:17:21.382Z,-7.30
2022-11-28T08:27:30.139Z,-7.26
2022-11-28T08:37:34.976Z,-7.22
2022-11-28T08:47:42.564Z,-7.18
2022-11-28T08:57:46.984Z,-7.11
2022-11-28T09:07:51.346Z,-7.07
2022-11-28T09:17:56.779Z,-7.02
2022-11-28T09:28:01.563Z,-7.00
2022-11-28T09:38:09.617Z,-6.99
2022-11-28T09:48:31.329Z,-6.96
2022-11-28T09:59:25.092Z,-6.91
2022-11-28T10:09:37.568Z,-6.89
2022-11-28T10:19:55.371Z,-6.86
2022-11-28T10:30:03.194Z,-6.84
2022-11-28T10:40:20.533Z,-6.84
2022-11-28T10:50:34.145Z,-6.80
2022-11-28T11:00:39.613Z,-6.79
2022-11-28T11:10:49.618Z,-6.76
2022-11-28T11:21:08.652Z,-6.76
2022-11-28T11:31:26.558Z,-6.75
2022-11-28T11:41:34.268Z,-6.75
2022-11-28T11:51:39.506Z,-6.83
2022-11-28T12:01:46.802Z,-6.82
2022-11-28T12:11:54.633Z,-6.81
2022-11-28T12:22:12.491Z,-6.84
2022-11-28T12:32:29.134Z,-6.85
2022-11-28T12:42:51.691Z,-6.87
2022-11-28T12:53:02.181Z,-6.89
2022-11-28T13:03:17.308Z,-6.94
2022-11-28T13:13:25.614Z,-6.96
2022-11-28T13:23:40.672Z,-6.98
2022-11-28T13:33:50.555Z,-7.02
2022-11-28T13:44:02.585Z,-7.06
2022-11-28T13:54:42.772Z,-7.10
2022-11-28T14:04:48.162Z,-7.15
2022-11-28T14:15:06.620Z,-7.22
2022-11-28T14:25:18.830Z,-7.32
2022-11-28T14:36:04.593Z,-7.40
2022-11-28T14:46:30.537Z,-7.51
2022-11-28T14:56:35.560Z,-7.61
2022-11-28T15:06:48.276Z,-7.69
2022-11-28T15:16:58.688Z,-7.78
2022-11-28T15:27:32.974Z,-7.86
2022-11-28T15:37:36.608Z,-7.94
2022-11-28T15:47:41.120Z,-8.03
2022-11-28T15:57:44.418Z,-8.09
2022-11-28T16:07:52.846Z,-8.13
2022-11-28T16:18:00.033Z,-8.18
2022-11-28T16:28:26.139Z,-8.25
2022-11-28T16:38:33.316Z,-8.31
2022-11-28T16:48:46.877Z,-8.37
2022-11-28T16:58:54.066Z,-8.43
2022-11-28T17:08:59.303Z,-8.55
2022-11-28T17:19:03.785Z,-8.63
2022-11-28T17:29:13.223Z,-8.71
2022-11-28T17:39:19.132Z,-8.78
2022-11-28T17:49:26.032Z,-8.84
2022-11-28T17:59:29.625Z,-8.89
2022-11-28T18:09:41.591Z,-8.95
2022-11-28T18:19:47.027Z,-9.01
2022-11-28T18:29:51.584Z,-9.07
2022-11-28T18:39:54.721Z,-9.13
2022-11-28T18:50:02.007Z,-9.17
2022-11-28T19:00:09.479Z,-9.21
2022-11-28T19:10:18.273Z,-9.27
2022-11-28T19:20:24.904Z,-9.30
2022-11-28T19:30:29.954Z,-9.37
2022-11-28T19:40:35.861Z,-9.42
2022-11-28T19:50:40.519Z,-9.44
2022-11-28T20:00:43.955Z,-9.45
2022-11-28T20:10:48.549Z,-9.49
2022-11-28T20:20:51.674Z,-9.51
2022-11-28T20:30:56.131Z,-9.55
2022-11-28T20:41:01.157Z,-9.59
2022-11-28T20:51:09.088Z,-9.63
2022-11-28T21:01:18.646Z,-9.68
2022-11-28T21:11:55.228Z,-9.76
2022-11-28T21:21:47.683Z,-9.81
2022-11-28T21:31:52.773Z,-9.86
2022-11-28T21:42:00.101Z,-9.90
2022-11-28T21:52:06.540Z,-9.97
2022-11-28T22:02:13.169Z,-10.04
2022-11-28T22:12:17.632Z,-10.06
2022-11-28T22:22:20.845Z,-10.10
2022-11-28T22:32:25.443Z,-10.17
2022-11-28T22:42:28.456Z,-10.23
2022-11-28T22:52:34.773Z,-10.26
2022-11-28T23:02:37.824Z,-10.30
2022-11-28T23:12:42.428Z,-10.33
2022-11-28T23:22:46.645Z,-10.36
2022-11-28T23:32:51.075Z,-10.40
2022-11-28T23:42:54.025Z,-10.44
2022-11-28T23:52:58.369Z,-10.48
